Absaraka, North Dakota
Current Conditions -  °F | °C
As of 6:53 AM on Sunday 21 Dec 2014 (Local Time) from KFAR Reporting Station
Haze Haze  
Wind Chill: 23°   Ceiling: 800
Heat Index: 32°   Visibility: 6mi
Dew Point: 28°   Wind: 13mph
Humidity: 85%   Direction: 170°S
Pressure: 29.76"   Gusts: NA
Location:  46.98°N, 97.39°W
Report Text: KFAR 211253Z 17011KT 6SM BR OVC008 00/M02 A2976 RMK AO2 SLP089 T00001022
Loading
Personal Weather Stations






























Interactive Weather Map New forecast layout! Learn more

10-Day Weather Forecast

Advertisements
Track Severe Weather on mobile